Time;durP1;ratioP1;P1;durP2;ratioP2;P2;SDS_P1;SDS_P2;PMS_P1;PMS_P2;Temp;Humidity;BMP_temperature;BMP_pressure;BME280_temperature;BME280_humidity;BME280_pressure;Samples;Min_cycle;Max_cycle;Signal;HPM_P1;HPM_P2
2023/06/20 00:01:34;;;;;;;4.53;3.65;;;24.60;99.90;;;;;;7408091;19;20135;-79
2023/06/20 00:04:00;;;;;;;3.92;3.47;;;24.50;99.90;;;;;;7410372;19;20141;-79
2023/06/20 00:06:25;;;;;;;4.32;3.80;;;24.50;99.90;;;;;;7406361;19;20142;-79
2023/06/20 00:08:51;;;;;;;4.43;3.75;;;24.60;99.90;;;;;;7393294;19;20127;-79
2023/06/20 00:11:17;;;;;;;4.72;3.97;;;24.50;99.90;;;;;;7395845;19;20135;-79
2023/06/20 00:13:43;;;;;;;8.70;3.78;;;24.50;99.90;;;;;;7393280;19;20511;-80
2023/06/20 00:16:09;;;;;;;4.15;3.72;;;24.50;99.90;;;;;;7391560;19;20142;-80
2023/06/20 00:18:35;;;;;;;5.13;3.95;;;24.60;99.90;;;;;;7391207;19;20134;-80
2023/06/20 00:21:01;;;;;;;4.53;3.20;;;24.60;99.90;;;;;;7389642;19;20159;-80
2023/06/20 00:23:29;;;;;;;3.95;3.65;;;24.60;99.90;;;;;;7389795;19;20130;-79
2023/06/20 00:25:55;;;;;;;4.00;3.53;;;24.60;99.90;;;;;;7387378;19;20933;-79
2023/06/20 00:28:21;;;;;;;4.20;3.63;;;24.60;99.90;;;;;;7390705;19;20157;-79
2023/06/20 00:30:47;;;;;;;4.65;3.60;;;24.60;99.90;;;;;;7389573;19;20601;-78
2023/06/20 00:33:13;;;;;;;4.00;3.70;;;24.70;99.90;;;;;;7388747;19;20230;-79
2023/06/20 00:35:39;;;;;;;3.70;3.40;;;24.70;99.90;;;;;;7387595;19;20130;-77
2023/06/20 00:38:05;;;;;;;3.95;3.55;;;24.70;99.90;;;;;;7381865;19;20142;-80
2023/06/20 00:40:31;;;;;;;4.47;3.95;;;24.60;99.90;;;;;;7389699;19;20146;-78
2023/06/20 00:42:58;;;;;;;4.82;3.50;;;24.60;99.90;;;;;;7389083;19;20580;-78
2023/06/20 00:45:30;;;;;;;6.18;3.25;;;24.70;99.90;;;;;;7387713;19;20270;-78
2023/06/20 00:48:14;;;;;;;4.10;3.40;;;24.50;99.90;;;;;;7389144;19;20248;-77
2023/06/20 00:50:41;;;;;;;4.35;3.78;;;24.20;99.90;;;;;;7386622;19;20226;-81
2023/06/20 00:53:07;;;;;;;4.85;3.58;;;23.90;99.90;;;;;;7387499;19;20145;-78
2023/06/20 00:55:34;;;;;;;5.72;4.20;;;23.50;99.90;;;;;;7385209;19;20182;-82
2023/06/20 00:58:02;;;;;;;5.90;4.07;;;23.50;99.90;;;;;;7386144;19;20461;-82
2023/06/20 01:00:34;;;;;;;6.00;4.20;;;23.20;99.90;;;;;;7388192;19;20267;-82
2023/06/20 01:03:04;;;;;;;5.15;4.65;;;23.10;99.90;;;;;;7385546;19;20134;-82
2023/06/20 01:05:32;;;;;;;7.80;4.70;;;23.20;99.90;;;;;;7388691;19;20142;-86
2023/06/20 01:08:10;;;;;;;5.70;4.60;;;23.10;99.90;;;;;;7389387;19;20130;-86
2023/06/20 01:10:48;;;;;;;5.60;4.95;;;23.10;99.90;;;;;;7388105;19;20151;-81
2023/06/20 01:13:32;;;;;;;5.68;4.20;;;22.90;99.90;;;;;;7389159;19;20138;-85
2023/06/20 01:16:28;;;;;;;7.13;4.13;;;22.90;99.90;;;;;;7388752;19;20617;-84
2023/06/20 01:19:00;;;;;;;5.15;4.32;;;23.00;99.90;;;;;;7386839;19;20673;-84
2023/06/20 01:21:32;;;;;;;7.22;4.20;;;22.80;99.90;;;;;;7388701;19;20779;-85
2023/06/20 01:24:09;;;;;;;5.50;4.05;;;22.60;99.90;;;;;;7389049;19;20134;-87
2023/06/20 01:26:46;;;;;;;5.53;4.32;;;22.60;99.90;;;;;;7387861;19;20173;-86
2023/06/20 01:29:15;;;;;;;5.45;4.05;;;22.60;99.90;;;;;;7386537;19;20600;-86
2023/06/20 01:31:49;;;;;;;6.47;4.03;;;22.70;99.90;;;;;;7387268;19;20126;-86
2023/06/20 01:34:24;;;;;;;5.63;4.22;;;22.70;99.90;;;;;;7386734;19;20138;-85
2023/06/20 01:37:13;;;;;;;7.93;3.85;;;22.50;99.90;;;;;;7388885;19;20130;-86
2023/06/20 01:39:51;;;;;;;4.28;3.83;;;22.40;99.90;;;;;;7389921;19;20671;-86
2023/06/20 01:42:23;;;;;;;3.97;3.20;;;22.50;99.90;;;;;;7385816;19;20138;-86
2023/06/20 01:44:51;;;;;;;6.82;3.72;;;22.50;99.90;;;;;;7388850;19;20142;-86
2023/06/20 01:47:19;;;;;;;4.82;3.50;;;22.50;99.90;;;;;;7385719;19;20607;-86
2023/06/20 01:49:51;;;;;;;7.28;3.60;;;22.60;99.90;;;;;;7386554;19;20150;-86
2023/06/20 01:52:18;;;;;;;3.70;3.40;;;22.70;99.90;;;;;;7390035;19;20161;-85
2023/06/20 01:54:46;;;;;;;4.95;3.50;;;22.70;99.90;;;;;;7388458;19;20127;-86
2023/06/20 01:57:13;;;;;;;3.85;3.30;;;22.60;99.90;;;;;;7385474;19;20123;-85
2023/06/20 01:59:41;;;;;;;3.42;3.03;;;22.70;99.90;;;;;;7387796;19;20218;-84
2023/06/20 02:02:07;;;;;;;4.13;3.30;;;22.70;99.90;;;;;;7383926;19;20135;-85
2023/06/20 02:04:35;;;;;;;4.85;3.35;;;22.60;99.90;;;;;;7390235;19;20139;-84
2023/06/20 02:07:02;;;;;;;5.03;2.85;;;22.50;99.90;;;;;;7391733;19;20189;-84
2023/06/20 02:09:29;;;;;;;4.75;3.13;;;22.60;99.90;;;;;;7395074;19;20233;-85
2023/06/20 02:11:56;;;;;;;4.82;3.50;;;22.40;99.90;;;;;;7395744;19;20653;-83
2023/06/20 02:14:24;;;;;;;4.80;2.80;;;22.50;99.90;;;;;;7394306;19;20464;-84
2023/06/20 02:16:50;;;;;;;4.18;3.40;;;22.50;99.90;;;;;;7388984;19;20123;-84
2023/06/20 02:19:16;;;;;;;4.25;3.33;;;22.50;99.90;;;;;;7399480;19;20134;-83
2023/06/20 02:21:45;;;;;;;3.22;2.92;;;22.60;99.90;;;;;;7396896;19;20142;-83
2023/06/20 02:24:15;;;;;;;4.47;3.10;;;22.60;99.90;;;;;;7397153;19;20471;-84
2023/06/20 02:26:44;;;;;;;5.25;3.38;;;22.60;99.90;;;;;;7400727;19;20131;-82
2023/06/20 02:29:11;;;;;;;4.00;3.25;;;22.70;99.90;;;;;;7394296;19;20157;-82
2023/06/20 02:31:40;;;;;;;4.57;3.40;;;22.80;99.90;;;;;;7397106;19;20638;-82
2023/06/20 02:34:11;;;;;;;4.00;3.20;;;22.70;99.90;;;;;;7393463;19;20138;-81
2023/06/20 02:36:38;;;;;;;4.28;3.28;;;22.70;99.90;;;;;;7390749;19;20139;-82
2023/06/20 02:39:06;;;;;;;3.67;3.35;;;22.60;99.90;;;;;;7394383;19;20468;-82
2023/06/20 02:41:32;;;;;;;3.75;3.13;;;22.60;99.90;;;;;;7391635;19;20139;-81
2023/06/20 02:43:58;;;;;;;4.25;3.67;;;22.60;99.90;;;;;;7392670;19;20529;-81
2023/06/20 02:46:55;;;;;;;3.50;3.20;;;22.70;99.90;;;;;;7387747;19;20548;-76
2023/06/20 02:49:50;;;;;;;5.57;3.20;;;22.60;99.90;;;;;;7391924;19;20142;-76
2023/06/20 02:52:29;;;;;;;5.47;3.55;;;22.50;99.90;;;;;;7391865;19;21399;-76
2023/06/20 02:55:00;;;;;;;4.10;3.20;;;22.60;99.90;;;;;;7390962;19;20145;-76
2023/06/20 02:57:28;;;;;;;3.80;3.40;;;22.50;99.90;;;;;;7389599;19;20486;-75
2023/06/20 03:00:01;;;;;;;5.20;3.28;;;22.40;99.90;;;;;;7391690;19;20149;-76
2023/06/20 03:02:31;;;;;;;4.75;3.70;;;22.40;99.90;;;;;;7390513;19;20127;-75
2023/06/20 03:05:00;;;;;;;3.85;3.30;;;22.40;99.90;;;;;;7388134;19;20136;-75
2023/06/20 03:07:28;;;;;;;4.18;3.67;;;22.40;99.90;;;;;;7390874;19;20135;-75
2023/06/20 03:09:55;;;;;;;4.63;3.55;;;22.30;99.90;;;;;;7390757;19;20135;-75
2023/06/20 03:12:22;;;;;;;4.50;3.40;;;22.40;99.90;;;;;;7389802;19;20138;-75
2023/06/20 03:14:47;;;;;;;4.90;3.10;;;22.40;99.90;;;;;;7389898;19;20133;-76
2023/06/20 03:17:14;;;;;;;4.18;3.42;;;22.40;99.90;;;;;;7391701;19;20536;-76
2023/06/20 03:19:39;;;;;;;3.78;3.30;;;22.30;99.90;;;;;;7392952;19;20134;-75
2023/06/20 03:22:05;;;;;;;6.35;3.58;;;22.40;99.90;;;;;;7381797;19;20150;-76
2023/06/20 03:24:31;;;;;;;4.22;3.53;;;22.30;99.90;;;;;;7387891;19;20246;-76
2023/06/20 03:26:56;;;;;;;4.85;3.05;;;22.30;99.90;;;;;;7389481;19;20657;-74
2023/06/20 03:29:22;;;;;;;4.25;3.63;;;22.30;99.90;;;;;;7390105;19;20142;-75
2023/06/20 03:31:48;;;;;;;3.80;3.47;;;22.20;99.90;;;;;;7389658;19;20134;-76
2023/06/20 03:34:14;;;;;;;4.43;3.30;;;22.20;99.90;;;;;;7387014;19;20246;-76
2023/06/20 03:36:40;;;;;;;4.25;3.30;;;22.20;99.90;;;;;;7392033;19;20130;-77
2023/06/20 03:39:05;;;;;;;3.90;3.17;;;21.80;99.90;;;;;;7388448;19;20467;-75
2023/06/20 03:41:31;;;;;;;4.18;3.15;;;21.80;99.90;;;;;;7389794;19;20139;-76
2023/06/20 03:43:57;;;;;;;3.78;3.20;;;22.00;99.90;;;;;;7384885;19;20789;-75
2023/06/20 03:46:23;;;;;;;5.57;3.33;;;22.00;99.90;;;;;;7390777;19;20618;-76
2023/06/20 03:48:48;;;;;;;3.88;2.92;;;22.00;99.90;;;;;;7390330;19;20146;-75
2023/06/20 03:51:14;;;;;;;4.20;3.40;;;21.70;99.90;;;;;;7391236;19;20134;-76
2023/06/20 03:53:40;;;;;;;5.68;4.22;;;21.80;99.90;;;;;;7389795;19;20139;-77
2023/06/20 03:56:05;;;;;;;3.55;2.90;;;22.00;99.90;;;;;;7389689;19;20486;-75
2023/06/20 03:58:31;;;;;;;4.53;3.22;;;22.00;99.90;;;;;;7388827;19;20161;-76
2023/06/20 04:00:57;;;;;;;3.40;3.00;;;22.00;99.90;;;;;;7385729;19;20150;-75
2023/06/20 04:03:23;;;;;;;3.08;2.60;;;22.00;99.90;;;;;;7387423;19;20220;-72
2023/06/20 04:05:48;;;;;;;3.30;2.63;;;22.00;99.90;;;;;;7389942;19;20130;-70
2023/06/20 04:08:14;;;;;;;3.45;3.15;;;22.00;99.90;;;;;;7390380;19;20546;-71
2023/06/20 04:10:40;;;;;;;5.40;2.95;;;22.00;99.90;;;;;;7387297;19;20143;-70
2023/06/20 04:13:05;;;;;;;3.30;2.42;;;22.00;99.90;;;;;;7389111;19;20131;-70
2023/06/20 04:15:31;;;;;;;4.68;3.05;;;21.50;99.90;;;;;;7387284;19;20141;-71
2023/06/20 04:17:57;;;;;;;3.22;2.67;;;21.60;99.90;;;;;;7388112;19;20143;-71
2023/06/20 04:20:23;;;;;;;4.18;2.60;;;21.80;99.90;;;;;;7385349;19;20163;-71
2023/06/20 04:22:48;;;;;;;3.17;2.47;;;22.00;99.90;;;;;;7389201;19;20691;-71
2023/06/20 04:25:15;;;;;;;3.13;2.40;;;22.10;99.90;;;;;;7387640;19;20169;-71
2023/06/20 04:27:41;;;;;;;3.90;2.70;;;22.20;99.90;;;;;;7385664;19;20138;-72
2023/06/20 04:30:08;;;;;;;2.50;2.17;;;22.00;99.90;;;;;;7389523;19;20142;-71
2023/06/20 04:32:34;;;;;;;2.80;2.50;;;22.10;99.90;;;;;;7387487;19;20591;-71
2023/06/20 04:35:00;;;;;;;3.80;2.67;;;22.20;99.90;;;;;;7389583;19;20158;-72
2023/06/20 04:37:29;;;;;;;3.67;2.40;;;22.30;99.90;;;;;;7386084;19;20901;-71
2023/06/20 04:39:57;;;;;;;3.35;2.88;;;22.20;99.90;;;;;;7387520;19;20209;-71
2023/06/20 04:42:23;;;;;;;2.95;2.38;;;22.30;99.90;;;;;;7387611;19;20142;-71
2023/06/20 04:44:48;;;;;;;3.72;2.50;;;22.10;99.90;;;;;;7391009;19;20318;-72
2023/06/20 04:47:14;;;;;;;3.38;2.65;;;22.10;99.90;;;;;;7384260;19;20717;-72
2023/06/20 04:49:40;;;;;;;4.03;2.47;;;22.20;99.90;;;;;;7387196;19;20147;-71
2023/06/20 04:52:06;;;;;;;4.95;2.47;;;22.20;99.90;;;;;;7386263;19;20166;-71
2023/06/20 04:54:32;;;;;;;3.10;2.63;;;22.10;99.90;;;;;;7387043;19;20146;-71
2023/06/20 04:56:58;;;;;;;3.10;2.65;;;22.20;99.90;;;;;;7386895;19;20614;-70
2023/06/20 04:59:24;;;;;;;3.15;2.70;;;22.30;99.90;;;;;;7384599;19;20143;-70
2023/06/20 05:01:51;;;;;;;5.55;2.67;;;22.40;99.90;;;;;;7385542;19;20864;-71
2023/06/20 05:04:17;;;;;;;5.25;2.55;;;22.30;99.90;;;;;;7384426;19;20131;-70
2023/06/20 05:06:46;;;;;;;3.35;2.40;;;22.40;99.90;;;;;;7387964;19;20139;-70
2023/06/20 05:09:12;;;;;;;5.13;2.38;;;22.30;99.90;;;;;;7383488;19;20165;-71
2023/06/20 05:11:38;;;;;;;4.25;2.28;;;22.20;99.90;;;;;;7388741;19;20239;-71
2023/06/20 05:14:03;;;;;;;4.50;2.60;;;22.20;99.90;;;;;;7384978;19;20162;-71
2023/06/20 05:16:29;;;;;;;2.80;2.40;;;22.30;99.90;;;;;;7383597;19;20147;-72
2023/06/20 05:18:55;;;;;;;3.70;2.33;;;22.40;99.90;;;;;;7384611;19;20543;-71
2023/06/20 05:21:21;;;;;;;2.97;2.05;;;22.40;99.90;;;;;;7385150;19;20142;-71
2023/06/20 05:23:46;;;;;;;2.67;2.47;;;22.40;99.90;;;;;;7384021;19;20637;-72
2023/06/20 05:26:12;;;;;;;2.72;2.00;;;22.50;99.90;;;;;;7384572;19;20209;-71
2023/06/20 05:28:38;;;;;;;4.03;2.40;;;22.50;99.90;;;;;;7387221;19;20157;-72
2023/06/20 05:31:04;;;;;;;3.28;2.60;;;22.50;99.90;;;;;;7379822;19;20714;-72
2023/06/20 05:33:30;;;;;;;4.38;2.70;;;22.70;99.90;;;;;;7381318;19;20131;-74
2023/06/20 05:35:57;;;;;;;3.10;2.45;;;22.70;99.90;;;;;;7378924;19;20138;-72
2023/06/20 05:38:23;;;;;;;4.18;2.22;;;22.80;99.90;;;;;;7383899;19;20126;-73
2023/06/20 05:40:48;;;;;;;5.30;2.30;;;22.70;99.90;;;;;;7387360;19;20141;-72
2023/06/20 05:43:14;;;;;;;3.88;2.40;;;22.70;99.90;;;;;;7390193;19;20135;-72
2023/06/20 05:45:40;;;;;;;3.50;2.38;;;22.80;99.90;;;;;;7390450;19;21188;-73
2023/06/20 05:48:08;;;;;;;2.30;2.10;;;22.80;99.90;;;;;;7390748;19;20171;-73
2023/06/20 05:50:35;;;;;;;3.60;2.60;;;22.90;99.90;;;;;;7391516;19;20142;-72
2023/06/20 05:53:01;;;;;;;4.40;2.75;;;23.00;99.90;;;;;;7388660;19;20154;-73
2023/06/20 05:55:27;;;;;;;3.55;2.80;;;23.00;99.90;;;;;;7391540;19;20139;-73
2023/06/20 05:57:53;;;;;;;3.63;2.80;;;23.00;99.90;;;;;;7389726;19;20611;-71
2023/06/20 06:00:19;;;;;;;3.50;2.53;;;23.10;99.90;;;;;;7388902;19;20146;-72
2023/06/20 06:02:49;;;;;;;3.00;2.40;;;23.00;99.90;;;;;;7391817;19;20149;-72
2023/06/20 06:05:14;;;;;;;3.85;2.67;;;23.10;99.90;;;;;;7389570;19;20135;-72
2023/06/20 06:07:40;;;;;;;4.90;2.70;;;23.10;99.90;;;;;;7390209;19;20138;-72
2023/06/20 06:10:09;;;;;;;3.95;2.53;;;23.30;99.90;;;;;;7391228;19;20130;-72
2023/06/20 06:12:36;;;;;;;4.70;3.25;;;23.50;99.90;;;;;;7390077;19;20602;-71
2023/06/20 06:15:03;;;;;;;4.78;4.03;;;24.70;99.90;;;;;;7392354;19;20403;-72
2023/06/20 06:17:38;;;;;;;11.13;7.57;;;26.10;99.90;;;;;;7384779;19;20165;-72
2023/06/20 06:20:07;;;;;;;8.45;5.10;;;27.30;99.90;;;;;;7389839;19;20158;-71
2023/06/20 06:22:33;;;;;;;4.65;3.95;;;28.70;99.90;;;;;;7392331;19;20142;-71
2023/06/20 06:24:59;;;;;;;5.32;3.28;;;29.50;99.90;;;;;;7391538;19;20127;-72
2023/06/20 06:27:24;;;;;;;3.97;3.03;;;30.90;99.90;;;;;;7391804;19;20154;-71
2023/06/20 06:29:50;;;;;;;3.42;2.58;;;32.20;99.90;;;;;;7389283;19;20155;-71
2023/06/20 06:32:20;;;;;;;6.00;4.18;;;32.50;99.90;;;;;;7389645;19;20473;-71
2023/06/20 06:34:48;;;;;;;6.13;4.20;;;32.00;99.90;;;;;;7389577;19;20139;-72
2023/06/20 06:37:14;;;;;;;3.60;3.30;;;32.60;99.90;;;;;;7390397;19;20523;-71
2023/06/20 06:39:40;;;;;;;4.95;3.42;;;33.80;99.90;;;;;;7390818;19;20139;-79
2023/06/20 06:42:09;;;;;;;7.30;5.50;;;33.00;99.90;;;;;;7387026;19;20159;-77
2023/06/20 06:44:34;;;;;;;7.40;5.38;;;33.00;99.40;;;;;;7388594;19;20198;-75
2023/06/20 06:47:01;;;;;;;3.95;2.55;;;32.60;99.90;;;;;;7390279;19;20163;-75
2023/06/20 06:49:27;;;;;;;4.22;3.10;;;34.00;98.80;;;;;;7390338;19;20138;-76
2023/06/20 06:51:53;;;;;;;3.97;2.65;;;33.70;98.00;;;;;;7386731;19;20150;-81
2023/06/20 06:54:20;;;;;;;6.93;3.00;;;34.70;97.10;;;;;;7389468;19;20646;-78
2023/06/20 06:56:46;;;;;;;4.53;2.63;;;34.50;97.40;;;;;;7390834;19;20506;-78
2023/06/20 06:59:11;;;;;;;5.20;2.60;;;34.40;96.50;;;;;;7390194;19;20142;-79
2023/06/20 07:01:38;;;;;;;3.67;2.58;;;34.80;96.80;;;;;;7388004;19;20153;-79
2023/06/20 07:04:04;;;;;;;3.60;2.53;;;33.80;96.70;;;;;;7388921;19;20131;-78
2023/06/20 07:06:30;;;;;;;3.08;2.75;;;33.10;97.30;;;;;;7389720;19;20625;-79
2023/06/20 07:08:56;;;;;;;2.55;2.17;;;33.30;98.00;;;;;;7390072;19;20142;-78
2023/06/20 07:11:22;;;;;;;3.38;2.60;;;33.90;96.90;;;;;;7390222;19;20206;-78
2023/06/20 07:13:48;;;;;;;4.53;2.70;;;34.00;97.00;;;;;;7389712;19;20137;-79
2023/06/20 07:16:13;;;;;;;3.40;2.92;;;33.40;97.90;;;;;;7390569;19;20131;-79
2023/06/20 07:18:39;;;;;;;2.95;2.60;;;34.00;96.60;;;;;;7390753;19;20238;-77
2023/06/20 07:21:05;;;;;;;5.10;3.88;;;34.00;97.00;;;;;;7388271;19;20174;-78
2023/06/20 07:23:32;;;;;;;4.47;2.75;;;33.70;97.60;;;;;;7387942;19;20135;-77
2023/06/20 07:25:58;;;;;;;4.05;3.05;;;33.60;97.70;;;;;;7393112;19;20157;-77
2023/06/20 07:28:26;;;;;;;4.15;2.58;;;33.80;97.00;;;;;;7387830;19;20622;-77
2023/06/20 07:30:51;;;;;;;4.03;2.60;;;33.10;98.20;;;;;;7390008;19;20143;-77
2023/06/20 07:33:17;;;;;;;4.65;2.35;;;33.20;98.20;;;;;;7390492;19;20546;-76
2023/06/20 07:35:43;;;;;;;4.03;2.70;;;33.00;97.20;;;;;;7386966;19;20127;-76
2023/06/20 07:38:09;;;;;;;3.33;2.72;;;33.10;97.90;;;;;;7390294;19;20147;-76
2023/06/20 07:40:35;;;;;;;4.65;2.95;;;32.70;98.00;;;;;;7386921;19;20135;-78
2023/06/20 07:43:00;;;;;;;4.68;3.00;;;32.90;98.40;;;;;;7388362;19;20591;-78
2023/06/20 07:45:27;;;;;;;4.25;2.70;;;32.80;98.10;;;;;;7388471;19;20234;-79
2023/06/20 07:47:53;;;;;;;3.88;2.95;;;32.70;98.10;;;;;;7388533;19;20127;-78
2023/06/20 07:50:19;;;;;;;6.30;2.70;;;32.40;98.60;;;;;;7389969;19;20211;-78
2023/06/20 07:52:45;;;;;;;6.53;3.20;;;32.40;98.80;;;;;;7391902;19;20162;-78
2023/06/20 07:55:11;;;;;;;4.00;2.97;;;31.90;99.30;;;;;;7391702;19;20476;-79
2023/06/20 07:57:37;;;;;;;3.75;2.88;;;31.40;99.90;;;;;;7389786;19;20123;-79
2023/06/20 08:00:06;;;;;;;3.85;3.15;;;31.50;99.90;;;;;;7389770;19;20138;-77
2023/06/20 08:02:34;;;;;;;4.25;3.15;;;31.20;99.90;;;;;;7390514;19;20131;-79
2023/06/20 08:05:00;;;;;;;4.22;3.10;;;31.20;99.90;;;;;;7392022;19;20629;-79
2023/06/20 08:07:27;;;;;;;4.93;3.72;;;31.20;99.90;;;;;;7390298;19;20131;-78
2023/06/20 08:09:53;;;;;;;3.95;3.28;;;31.20;99.90;;;;;;7391199;19;20445;-81
2023/06/20 08:12:19;;;;;;;4.60;3.60;;;31.00;99.90;;;;;;7394901;19;20134;-78
2023/06/20 08:14:45;;;;;;;3.90;3.17;;;31.00;99.90;;;;;;7400535;19;20134;-78
2023/06/20 08:17:14;;;;;;;4.90;4.15;;;30.70;99.90;;;;;;7397407;19;20131;-77
2023/06/20 08:19:40;;;;;;;4.22;3.28;;;30.40;99.90;;;;;;7397883;19;20646;-77
2023/06/20 08:22:05;;;;;;;5.32;3.30;;;30.70;99.90;;;;;;7394998;19;20583;-78
2023/06/20 08:24:31;;;;;;;4.28;3.30;;;30.90;99.90;;;;;;7396124;19;20160;-77
2023/06/20 08:26:58;;;;;;;4.88;3.58;;;30.80;99.90;;;;;;7399106;19;20587;-76
2023/06/20 08:29:24;;;;;;;4.97;3.15;;;31.00;99.90;;;;;;7400029;19;20154;-78
2023/06/20 08:31:50;;;;;;;3.95;3.42;;;30.80;99.90;;;;;;7396489;19;20252;-79
2023/06/20 08:34:16;;;;;;;8.27;5.20;;;30.70;99.90;;;;;;7387297;19;20214;-77
2023/06/20 08:36:43;;;;;;;4.38;3.05;;;31.00;99.90;;;;;;7388514;19;20163;-77
2023/06/20 08:39:09;;;;;;;3.63;3.28;;;31.30;99.90;;;;;;7393459;19;20134;-78
2023/06/20 08:41:35;;;;;;;5.80;3.35;;;31.50;99.90;;;;;;7387051;19;20200;-77
2023/06/20 08:44:01;;;;;;;6.00;3.80;;;31.70;99.90;;;;;;7387783;19;20575;-77
2023/06/20 08:46:28;;;;;;;4.70;3.33;;;31.80;99.90;;;;;;7385267;19;20170;-77
2023/06/20 08:48:55;;;;;;;5.15;3.60;;;31.50;99.90;;;;;;7389672;19;20162;-77
2023/06/20 08:51:22;;;;;;;6.25;4.10;;;31.70;99.90;;;;;;7386734;19;20134;-76
2023/06/20 08:53:49;;;;;;;6.47;3.55;;;31.80;99.90;;;;;;7386624;19;20956;-76
2023/06/20 08:56:17;;;;;;;4.70;3.63;;;32.00;99.90;;;;;;7385256;19;20149;-77
2023/06/20 08:58:43;;;;;;;3.90;3.40;;;31.80;99.30;;;;;;7387534;19;20226;-76
2023/06/20 09:01:09;;;;;;;5.43;3.70;;;31.60;98.60;;;;;;7383118;19;20536;-77
2023/06/20 09:03:35;;;;;;;4.28;3.45;;;31.40;99.20;;;;;;7388657;19;20214;-78
2023/06/20 09:06:02;;;;;;;4.15;3.25;;;31.30;99.90;;;;;;7386073;19;20653;-80
2023/06/20 09:08:43;;;;;;;6.15;3.28;;;31.30;99.90;;;;;;7385368;19;20141;-79
2023/06/20 09:11:12;;;;;;;6.82;3.63;;;31.30;99.90;;;;;;7383838;19;20261;-79
2023/06/20 09:13:38;;;;;;;6.28;4.03;;;31.30;99.60;;;;;;7386828;19;20548;-79
2023/06/20 09:16:08;;;;;;;5.70;3.97;;;31.10;99.60;;;;;;7385772;19;20147;-78
2023/06/20 09:18:35;;;;;;;4.28;3.08;;;31.00;99.90;;;;;;7388559;19;20135;-77
2023/06/20 09:21:02;;;;;;;4.93;3.47;;;31.00;99.90;;;;;;7384560;19;20126;-79
2023/06/20 09:23:30;;;;;;;4.13;3.50;;;30.80;99.90;;;;;;7387831;19;20131;-78
2023/06/20 09:26:12;;;;;;;6.40;3.90;;;30.40;99.90;;;;;;7385384;19;20133;-79
2023/06/20 09:28:38;;;;;;;5.05;3.58;;;30.40;99.90;;;;;;7385198;19;20150;-79
2023/06/20 09:31:03;;;;;;;6.68;3.72;;;30.50;99.90;;;;;;7382638;19;20134;-78
2023/06/20 09:33:30;;;;;;;7.60;3.97;;;30.40;99.90;;;;;;7386913;19;20135;-78
2023/06/20 09:36:15;;;;;;;6.13;4.78;;;30.30;99.90;;;;;;7385567;19;20142;-77
2023/06/20 09:38:50;;;;;;;4.45;3.78;;;30.30;99.90;;;;;;7385845;19;20146;-77
2023/06/20 09:41:16;;;;;;;5.38;4.00;;;30.50;99.90;;;;;;7384626;19;20150;-78
2023/06/20 09:43:43;;;;;;;5.72;3.25;;;30.60;99.90;;;;;;7387305;19;20628;-77
2023/06/20 09:46:09;;;;;;;5.85;3.90;;;30.60;99.90;;;;;;7381873;19;20182;-77
2023/06/20 09:48:36;;;;;;;5.43;4.07;;;30.60;99.50;;;;;;7383312;19;20615;-77
2023/06/20 09:51:04;;;;;;;5.53;3.90;;;30.40;99.90;;;;;;7386291;19;20127;-79
2023/06/20 09:54:01;;;;;;;6.03;3.85;;;30.30;99.90;;;;;;7386417;19;20270;-77
2023/06/20 09:56:29;;;;;;;5.30;3.25;;;30.60;99.90;;;;;;7380596;19;20157;-79
2023/06/20 09:58:59;;;;;;;6.18;3.85;;;30.80;99.80;;;;;;7385794;19;20214;-79
2023/06/20 10:01:26;;;;;;;9.57;7.25;;;31.00;98.30;;;;;;7382826;19;20179;-80
2023/06/20 10:03:54;;;;;;;5.93;5.03;;;30.90;99.10;;;;;;7386928;19;20145;-77
2023/06/20 10:06:20;;;;;;;4.53;3.50;;;31.10;99.00;;;;;;7383302;19;20238;-76
2023/06/20 10:08:47;;;;;;;3.60;3.03;;;31.10;98.90;;;;;;7384419;19;20150;-77
2023/06/20 10:11:13;;;;;;;6.45;3.28;;;31.20;98.70;;;;;;7381772;19;20127;-76
2023/06/20 10:13:41;;;;;;;6.10;3.95;;;31.20;97.70;;;;;;7384011;19;20146;-78
2023/06/20 10:16:07;;;;;;;6.10;3.80;;;31.10;98.00;;;;;;7383563;19;20168;-77
2023/06/20 10:18:33;;;;;;;5.38;3.03;;;31.10;98.10;;;;;;7384479;19;20536;-76
2023/06/20 10:21:02;;;;;;;4.50;3.30;;;31.10;97.60;;;;;;7380674;19;20146;-76
2023/06/20 10:23:32;;;;;;;7.13;3.20;;;31.10;96.80;;;;;;7386690;19;20237;-77
2023/06/20 10:26:00;;;;;;;5.93;3.55;;;31.00;96.70;;;;;;7386943;19;20159;-77
2023/06/20 10:28:26;;;;;;;5.53;3.50;;;30.90;97.40;;;;;;7392700;19;20609;-77
2023/06/20 10:30:57;;;;;;;3.25;2.85;;;30.90;97.30;;;;;;7391358;19;20126;-75
2023/06/20 10:33:39;;;;;;;3.22;2.70;;;31.10;96.90;;;;;;7394256;19;20202;-77
2023/06/20 10:36:10;;;;;;;7.50;3.47;;;31.10;96.30;;;;;;7389794;19;20134;-77
2023/06/20 10:38:59;;;;;;;5.20;3.70;;;31.10;95.90;;;;;;7391567;19;20135;-76
2023/06/20 10:41:25;;;;;;;3.83;3.38;;;31.00;96.20;;;;;;7390715;19;20150;-76
2023/06/20 10:43:52;;;;;;;3.97;3.30;;;31.20;96.50;;;;;;7391083;19;20142;-77
2023/06/20 10:46:21;;;;;;;4.90;2.95;;;31.30;94.60;;;;;;7390632;19;20154;-78
2023/06/20 10:48:47;;;;;;;4.68;2.80;;;31.30;94.70;;;;;;7389442;19;20150;-77
2023/06/20 10:51:13;;;;;;;5.63;3.28;;;31.30;92.70;;;;;;7390416;19;20146;-78
2023/06/20 10:53:39;;;;;;;4.82;2.92;;;31.30;92.70;;;;;;7389959;19;20184;-79
2023/06/20 10:56:05;;;;;;;4.10;3.17;;;31.20;93.60;;;;;;7387032;19;20145;-79
2023/06/20 10:58:31;;;;;;;7.28;4.40;;;31.40;93.20;;;;;;7390395;19;20519;-79
2023/06/20 11:00:57;;;;;;;5.07;3.30;;;31.50;93.20;;;;;;7388274;19;20149;-77
2023/06/20 11:03:24;;;;;;;4.38;3.35;;;31.60;92.30;;;;;;7389647;19;20142;-77
2023/06/20 11:05:53;;;;;;;6.97;3.88;;;31.30;91.20;;;;;;7390014;19;20150;-77
2023/06/20 11:08:27;;;;;;;5.35;3.63;;;31.00;92.50;;;;;;7389571;19;20151;-80
2023/06/20 11:10:53;;;;;;;7.30;3.42;;;30.90;93.80;;;;;;7391141;19;20139;-78
2023/06/20 11:13:23;;;;;;;7.22;3.72;;;31.10;94.20;;;;;;7392193;19;20131;-79
2023/06/20 11:15:49;;;;;;;5.03;3.67;;;31.30;93.40;;;;;;7385265;19;20146;-79
2023/06/20 11:18:14;;;;;;;4.18;3.22;;;31.10;93.50;;;;;;7389784;19;20173;-79
2023/06/20 11:20:41;;;;;;;3.70;3.10;;;31.30;93.20;;;;;;7387168;19;20602;-79
2023/06/20 11:23:12;;;;;;;3.72;3.08;;;31.20;92.70;;;;;;7390956;19;20517;-76
2023/06/20 11:25:44;;;;;;;5.07;3.25;;;31.50;92.20;;;;;;7389333;19;20518;-79
2023/06/20 11:28:12;;;;;;;3.78;3.47;;;31.50;90.70;;;;;;7388646;19;20135;-78
2023/06/20 11:30:40;;;;;;;7.22;5.93;;;31.30;90.90;;;;;;7390532;19;20156;-77
2023/06/20 11:33:11;;;;;;;5.93;5.07;;;31.30;91.20;;;;;;7388549;19;20139;-79
2023/06/20 11:35:44;;;;;;;7.20;5.82;;;31.30;91.50;;;;;;7388418;19;20142;-78
2023/06/20 11:38:21;;;;;;;5.10;3.53;;;31.40;90.60;;;;;;7387135;19;20150;-78
2023/06/20 11:40:59;;;;;;;7.03;5.22;;;31.40;90.50;;;;;;7387204;19;20596;-78
2023/06/20 11:43:39;;;;;;;3.40;3.03;;;31.60;90.70;;;;;;7388173;19;20138;-77
2023/06/20 11:46:05;;;;;;;3.70;3.20;;;31.70;89.10;;;;;;7386794;19;20500;-77
2023/06/20 11:48:31;;;;;;;4.03;3.50;;;31.50;89.40;;;;;;7388029;19;20154;-76
2023/06/20 11:51:02;;;;;;;3.88;2.92;;;31.40;88.30;;;;;;7387450;19;20257;-77
2023/06/20 11:53:33;;;;;;;6.30;3.35;;;31.20;89.40;;;;;;7389119;19;20630;-77
2023/06/20 11:56:02;;;;;;;4.22;3.70;;;31.10;90.30;;;;;;7387099;19;20179;-78
2023/06/20 11:58:35;;;;;;;7.80;3.38;;;31.20;90.00;;;;;;7390822;19;20594;-77
2023/06/20 12:01:04;;;;;;;4.22;3.03;;;31.30;89.80;;;;;;7385046;19;20146;-77
2023/06/20 12:03:31;;;;;;;4.78;3.10;;;31.30;90.40;;;;;;7388058;19;20127;-78
2023/06/20 12:05:58;;;;;;;5.88;3.10;;;31.30;90.50;;;;;;7386098;19;20145;-76
2023/06/20 12:08:25;;;;;;;4.90;3.05;;;31.50;91.00;;;;;;7389885;19;20126;-78
2023/06/20 12:10:59;;;;;;;4.82;3.45;;;31.60;90.70;;;;;;7385357;19;20211;-78
2023/06/20 12:13:26;;;;;;;7.75;3.28;;;31.70;90.40;;;;;;7386237;19;20159;-78
2023/06/20 12:15:52;;;;;;;5.30;3.10;;;31.70;90.90;;;;;;7387962;19;20138;-78
2023/06/20 12:18:18;;;;;;;7.28;4.15;;;31.70;90.80;;;;;;7388013;19;20696;-76
2023/06/20 12:20:45;;;;;;;5.60;4.05;;;31.80;91.00;;;;;;7384889;19;20143;-77
2023/06/20 12:23:12;;;;;;;5.30;3.80;;;31.80;90.80;;;;;;7389000;19;20139;-78
2023/06/20 12:25:37;;;;;;;5.78;3.10;;;31.80;90.60;;;;;;7389023;19;20155;-78
2023/06/20 12:28:03;;;;;;;4.57;3.05;;;31.80;90.60;;;;;;7388504;19;20122;-78
2023/06/20 12:30:30;;;;;;;4.78;2.92;;;31.80;90.80;;;;;;7387264;19;20154;-79
2023/06/20 12:33:00;;;;;;;6.45;3.35;;;31.70;90.70;;;;;;7387717;19;20178;-77
2023/06/20 12:35:26;;;;;;;5.10;3.40;;;31.90;90.30;;;;;;7386917;19;20610;-78
2023/06/20 12:37:52;;;;;;;5.97;3.60;;;31.70;90.30;;;;;;7388668;19;20483;-78
2023/06/20 12:40:18;;;;;;;9.80;7.22;;;31.70;90.70;;;;;;7386440;19;20650;-78
2023/06/20 12:42:44;;;;;;;5.03;4.05;;;31.90;90.40;;;;;;7388229;19;20150;-77
2023/06/20 12:45:13;;;;;;;4.22;3.13;;;31.80;90.60;;;;;;7384968;19;20166;-78
2023/06/20 12:47:38;;;;;;;4.57;3.40;;;31.90;90.30;;;;;;7385950;19;20139;-78
2023/06/20 12:50:06;;;;;;;8.27;4.95;;;32.00;90.20;;;;;;7386254;19;20139;-78
2023/06/20 12:52:32;;;;;;;4.07;3.45;;;32.20;89.40;;;;;;7386925;19;20173;-77